CDT,Max TemperatureF,Mean TemperatureF,Min TemperatureF,Max Dew PointF,MeanDew PointF,Min DewpointF,Max Humidity, Mean Humidity, Min Humidity, Max Sea Level PressureIn, Mean Sea Level PressureIn, Min Sea Level PressureIn, Max VisibilityMiles, Mean VisibilityMiles, Min VisibilityMiles, Max Wind SpeedMPH, Mean Wind SpeedMPH, Max Gust SpeedMPH,PrecipitationIn, CloudCover, Events, WindDirDegrees
2013-3-1,33,20,6,25,14,3,100,82,64,30.42,30.29,30.21,10,6,0,15,4,17,0.00,3,Fog,360
2013-3-2,53,31,8,38,18,7,100,80,60,30.38,30.22,30.02,10,5,0,9,3,13,0.00,2,Fog,173
2013-3-3,53,41,28,37,33,27,100,77,54,30.00,29.76,29.58,10,9,5,15,5,18,0.00,0,,142
2013-3-4,46,38,30,32,22,9,100,63,41,30.16,29.84,29.56,10,10,6,32,19,45,0.00,3,,336
2013-3-5,35,25,14,16,12,9,80,59,38,30.45,30.31,30.11,10,10,6,41,19,49,T,1,Snow,338
2013-3-6,41,25,9,21,16,7,92,66,40,30.42,30.28,30.10,10,10,10,25,10,35,0.00,0,,150
2013-3-7,49,36,22,28,24,20,96,69,42,30.13,30.08,30.03,10,9,6,18,9,25,0.00,0,,156
2013-3-8,51,37,23,47,33,22,93,72,50,30.11,29.94,29.75,10,8,4,17,7,26,0.00,3,,97
2013-3-9,48,38,28,47,36,25,100,93,85,29.93,29.71,29.58,9,3,0,37,21,45,0.05,8,Fog-Rain-Snow,32
2013-3-10,29,22,15,27,16,10,92,80,68,30.16,30.03,29.86,10,4,0,38,24,48,0.03,7,Fog-Snow,350
2013-3-11,50,31,11,30,19,7,85,64,42,30.12,30.01,29.91,10,10,10,28,10,33,0.00,0,,322
2013-3-12,40,28,15,24,14,7,80,54,27,30.40,30.26,30.11,10,10,10,39,18,49,0.00,0,,323
2013-3-13,59,36,13,28,19,10,88,57,25,30.40,30.28,30.14,10,10,10,22,8,30,0.00,2,,182
2013-3-14,72,52,31,32,30,27,82,51,20,30.17,30.09,30.02,10,10,10,21,7,28,0.00,0,,317
2013-3-15,77,57,37,37,32,28,70,44,18,29.99,29.81,29.68,10,10,10,21,8,28,0.00,0,,327
2013-3-16,42,34,26,31,22,16,85,68,51,30.14,30.07,29.91,10,10,9,25,12,32,T,7,,31
2013-3-17,40,31,22,31,25,18,89,74,59,30.10,29.84,29.61,10,9,2,29,14,37,0.01,7,Rain-Snow,158
2013-3-18,41,30,19,28,15,2,84,53,21,30.08,29.94,29.74,10,10,10,32,13,39,0.00,3,,325
2013-3-19,50,34,18,26,16,11,81,51,21,30.40,30.17,30.05,10,10,10,26,11,35,0.00,5,,331
2013-3-20,45,29,12,16,9,2,80,51,22,30.45,30.26,30.01,10,10,10,18,6,25,0.00,1,,232
2013-3-21,43,32,21,25,20,13,100,65,30,29.97,29.87,29.78,10,6,0,26,16,58,0.11,5,Fog-Rain-Snow,127
2013-3-22,36,30,23,29,25,22,100,88,75,30.01,29.90,29.83,9,2,0,14,6,22,0.07,7,Fog-Rain-Snow,125
2013-3-23,30,25,20,28,23,15,100,84,68,30.23,30.07,29.96,10,3,1,28,16,32,0.01,8,Rain-Snow,15
2013-3-24,29,21,13,18,13,7,80,63,46,30.29,30.20,30.08,10,9,2,32,18,41,T,3,Snow,341
2013-3-25,25,17,8,16,13,8,92,76,60,30.43,30.31,30.18,10,8,1,24,12,29,T,6,Rain-Snow,338
2013-3-26,47,25,3,22,14,1,92,62,31,30.43,30.28,30.16,10,10,10,26,9,47,0.00,0,,176
2013-3-27,56,40,23,27,24,20,88,57,26,30.22,30.16,30.11,10,10,8,9,4,29,0.00,2,,131
2013-3-28,64,44,24,31,26,22,88,55,21,30.21,30.15,30.07,10,10,7,22,7,29,0.00,3,,160
2013-3-29,70,49,27,46,35,23,93,61,28,30.17,30.07,29.96,10,10,8,22,8,28,0.02,3,Rain-Thunderstorm,167
2013-3-30,63,50,37,47,40,33,100,67,34,30.06,29.99,29.94,10,7,0,23,12,26,0.04,3,Fog-Rain,335
2013-3-31,64,47,30,38,29,22,92,59,26,30.18,30.03,29.84,10,10,10,26,12,36,0.00,3,,329